createdAt,value
2022-08-02T00:00:33.913Z,4.20
2022-08-02T00:03:00.883Z,3.75
2022-08-02T00:05:28.004Z,3.80
2022-08-02T00:07:55.006Z,4.60
2022-08-02T00:10:21.837Z,4.18
2022-08-02T00:12:48.662Z,4.18
2022-08-02T00:15:16.340Z,3.95
2022-08-02T00:17:47.300Z,3.70
2022-08-02T00:20:16.257Z,4.05
2022-08-02T00:22:43.628Z,3.95
2022-08-02T00:25:10.628Z,3.85
2022-08-02T00:27:37.651Z,3.97
2022-08-02T00:30:05.341Z,4.53
2022-08-02T00:32:32.111Z,5.00
2022-08-02T00:34:58.922Z,4.15
2022-08-02T00:37:25.775Z,4.82
2022-08-02T00:39:52.677Z,3.83
2022-08-02T00:42:19.534Z,4.45
2022-08-02T00:44:46.436Z,4.35
2022-08-02T00:47:15.023Z,4.53
2022-08-02T00:49:47.287Z,4.05
2022-08-02T00:52:14.694Z,4.68
2022-08-02T00:54:42.072Z,4.70
2022-08-02T00:57:08.966Z,4.35
2022-08-02T00:59:35.944Z,4.22
2022-08-02T01:02:02.958Z,4.15
2022-08-02T01:04:31.809Z,4.38
2022-08-02T01:07:12.122Z,4.05
2022-08-02T01:09:41.014Z,3.97
2022-08-02T01:12:08.407Z,3.75
2022-08-02T01:14:35.613Z,4.20
2022-08-02T01:17:29.056Z,3.83
2022-08-02T01:20:17.859Z,4.43
2022-08-02T01:23:04.032Z,4.80
2022-08-02T01:25:49.162Z,4.30
2022-08-02T01:28:37.218Z,3.88
2022-08-02T01:31:21.105Z,4.40
2022-08-02T01:34:33.170Z,4.40
2022-08-02T01:37:16.216Z,4.40
2022-08-02T01:39:45.860Z,4.60
2022-08-02T01:42:14.240Z,4.93
2022-08-02T01:44:43.566Z,4.70
2022-08-02T01:47:17.874Z,4.22
2022-08-02T01:49:47.988Z,4.53
2022-08-02T01:52:25.512Z,4.60
2022-08-02T01:55:09.915Z,4.60
2022-08-02T01:57:55.542Z,4.80
2022-08-02T02:00:25.386Z,5.28
2022-08-02T02:02:55.537Z,5.32
2022-08-02T02:05:25.776Z,6.15
2022-08-02T02:07:58.911Z,5.47
2022-08-02T02:10:29.966Z,5.40
2022-08-02T02:13:01.486Z,5.35
2022-08-02T02:15:29.889Z,5.45
2022-08-02T02:18:12.711Z,5.22
2022-08-02T02:20:42.367Z,5.85
2022-08-02T02:23:09.803Z,5.95
2022-08-02T02:25:41.878Z,6.38
2022-08-02T02:28:19.684Z,5.05
2022-08-02T02:30:51.044Z,5.30
2022-08-02T02:33:19.939Z,5.40
2022-08-02T02:35:50.418Z,5.40
2022-08-02T02:38:20.487Z,5.43
2022-08-02T02:40:49.013Z,4.90
2022-08-02T02:43:17.703Z,4.85
2022-08-02T02:45:46.137Z,4.72
2022-08-02T02:48:15.213Z,5.00
2022-08-02T02:50:43.977Z,4.57
2022-08-02T02:53:13.416Z,4.75
2022-08-02T02:55:41.840Z,4.97
2022-08-02T02:58:29.241Z,5.53
2022-08-02T03:01:15.320Z,5.07
2022-08-02T03:03:44.412Z,5.22
2022-08-02T03:06:15.093Z,5.05
2022-08-02T03:08:43.553Z,5.32
2022-08-02T03:11:11.244Z,6.03
2022-08-02T03:13:39.118Z,4.68
2022-08-02T03:16:06.620Z,6.40
2022-08-02T03:18:36.194Z,5.82
2022-08-02T03:21:06.657Z,6.25
2022-08-02T03:23:33.797Z,6.68
2022-08-02T03:26:01.715Z,6.22
2022-08-02T03:28:28.849Z,6.05
2022-08-02T03:30:55.693Z,6.80
2022-08-02T03:33:24.208Z,6.57
2022-08-02T03:35:53.595Z,6.47
2022-08-02T03:38:23.067Z,6.72
2022-08-02T03:40:56.200Z,6.68
2022-08-02T03:43:24.143Z,7.00
2022-08-02T03:45:57.008Z,6.65
2022-08-02T03:48:34.918Z,6.47
2022-08-02T03:51:02.749Z,6.68
2022-08-02T03:53:30.200Z,6.65
2022-08-02T03:55:58.244Z,7.22
2022-08-02T03:58:25.605Z,7.25
2022-08-02T04:00:54.585Z,7.60
2022-08-02T04:03:21.576Z,7.32
2022-08-02T04:06:03.186Z,7.22
2022-08-02T04:08:35.571Z,7.32
2022-08-02T04:11:23.366Z,7.30
2022-08-02T04:13:50.488Z,7.35
2022-08-02T04:16:38.338Z,7.45
2022-08-02T04:19:07.501Z,7.68
2022-08-02T04:21:41.415Z,8.10
2022-08-02T04:24:18.666Z,8.43
2022-08-02T04:26:48.045Z,10.55
2022-08-02T04:29:18.458Z,11.23
2022-08-02T04:31:46.047Z,11.15
2022-08-02T04:34:15.528Z,9.85
2022-08-02T04:36:43.410Z,11.55
2022-08-02T04:39:10.712Z,11.18
2022-08-02T04:41:44.252Z,11.73
2022-08-02T04:44:12.353Z,11.52
2022-08-02T04:46:40.288Z,11.23
2022-08-02T04:49:07.664Z,11.68
2022-08-02T04:51:38.025Z,11.57
2022-08-02T04:54:09.066Z,11.18
2022-08-02T04:56:39.051Z,11.25
2022-08-02T04:59:06.200Z,11.07
2022-08-02T05:01:33.063Z,9.48
2022-08-02T05:04:00.037Z,10.38
2022-08-02T05:06:27.283Z,10.35
2022-08-02T05:08:54.289Z,9.00
2022-08-02T05:11:30.034Z,9.68
2022-08-02T05:14:03.510Z,9.38
2022-08-02T05:16:31.564Z,8.95
2022-08-02T05:18:59.740Z,9.88
2022-08-02T05:21:26.616Z,8.93
2022-08-02T05:23:53.381Z,9.05
2022-08-02T05:26:20.278Z,9.23
2022-08-02T05:28:47.205Z,9.13
2022-08-02T05:31:14.100Z,8.02
2022-08-02T05:33:41.083Z,9.32
2022-08-02T05:36:09.580Z,9.48
2022-08-02T05:38:37.878Z,8.90
2022-08-02T05:41:06.037Z,9.07
2022-08-02T05:43:32.959Z,9.32
2022-08-02T05:46:00.513Z,9.70
2022-08-02T05:48:31.473Z,8.30
2022-08-02T05:51:09.033Z,9.35
2022-08-02T05:53:50.945Z,8.75
2022-08-02T05:56:47.045Z,8.88
2022-08-02T05:59:40.181Z,8.48
2022-08-02T06:02:30.000Z,8.63
2022-08-02T06:05:05.352Z,8.75
2022-08-02T06:07:36.506Z,9.35
2022-08-02T06:10:05.416Z,9.38
2022-08-02T06:12:33.972Z,8.77
2022-08-02T06:15:04.085Z,8.93
2022-08-02T06:17:32.118Z,8.88
2022-08-02T06:20:00.738Z,8.60
2022-08-02T06:22:36.085Z,8.15
2022-08-02T06:25:05.031Z,8.18
2022-08-02T06:27:33.156Z,7.15
2022-08-02T06:30:02.955Z,7.57
2022-08-02T06:32:30.424Z,7.18
2022-08-02T06:34:57.434Z,6.82
2022-08-02T06:37:24.488Z,6.18
2022-08-02T06:39:58.272Z,6.68
2022-08-02T06:42:38.614Z,5.47
2022-08-02T06:45:05.807Z,5.28
2022-08-02T06:47:34.123Z,5.38
2022-08-02T06:50:00.946Z,4.70
2022-08-02T06:52:31.247Z,4.22
2022-08-02T06:55:00.727Z,3.88
2022-08-02T06:57:28.738Z,3.63
2022-08-02T06:59:55.843Z,3.63
2022-08-02T07:02:23.047Z,3.08
2022-08-02T07:04:50.335Z,4.28
2022-08-02T07:07:17.320Z,3.67
2022-08-02T07:09:56.717Z,2.83
2022-08-02T07:12:30.730Z,4.03
2022-08-02T07:15:02.343Z,3.42
2022-08-02T07:17:30.162Z,3.25
2022-08-02T07:19:57.785Z,4.15
2022-08-02T07:22:27.465Z,3.45
2022-08-02T07:24:56.830Z,3.60
2022-08-02T07:27:24.335Z,3.25
2022-08-02T07:29:51.728Z,3.20
2022-08-02T07:32:21.120Z,2.92
2022-08-02T07:34:51.201Z,2.60
2022-08-02T07:37:53.417Z,2.40
2022-08-02T07:40:15.314Z,2.30
2022-08-02T07:42:54.519Z,2.63
2022-08-02T07:45:24.888Z,2.67
2022-08-02T07:47:52.588Z,2.20
2022-08-02T07:50:21.012Z,2.10
2022-08-02T07:52:48.689Z,2.83
2022-08-02T07:55:17.937Z,2.47
2022-08-02T07:57:46.663Z,2.10
2022-08-02T08:00:16.288Z,2.50
2022-08-02T08:02:43.930Z,2.58
2022-08-02T08:05:12.113Z,2.95
2022-08-02T08:07:39.326Z,3.00
2022-08-02T08:10:07.067Z,2.75
2022-08-02T08:12:34.226Z,2.10
2022-08-02T08:15:01.102Z,2.10
2022-08-02T08:17:27.978Z,2.28
2022-08-02T08:19:54.983Z,2.42
2022-08-02T08:22:22.675Z,2.10
2022-08-02T08:24:50.353Z,2.30
2022-08-02T08:27:18.515Z,2.05
2022-08-02T08:29:46.070Z,1.85
2022-08-02T08:32:18.229Z,2.47
2022-08-02T08:34:49.385Z,2.15
2022-08-02T08:37:17.984Z,1.95
2022-08-02T08:39:56.343Z,1.90
2022-08-02T08:42:24.776Z,1.73
2022-08-02T08:44:52.179Z,1.90
2022-08-02T08:47:21.124Z,2.03
2022-08-02T08:49:52.578Z,1.27
2022-08-02T08:52:22.766Z,1.45
2022-08-02T08:54:50.663Z,1.40
2022-08-02T08:57:20.352Z,1.25
2022-08-02T08:59:47.460Z,1.38
2022-08-02T09:02:20.531Z,1.23
2022-08-02T09:04:54.991Z,1.45
2022-08-02T09:07:23.177Z,1.10
2022-08-02T09:09:50.388Z,1.15
2022-08-02T09:12:18.557Z,1.10
2022-08-02T09:14:46.635Z,1.75
2022-08-02T09:17:18.306Z,1.30
2022-08-02T09:19:45.869Z,1.30
2022-08-02T09:22:15.389Z,1.20
2022-08-02T09:24:47.155Z,1.20
2022-08-02T09:27:22.678Z,1.30
2022-08-02T09:30:13.237Z,1.35
2022-08-02T09:32:50.013Z,1.02
2022-08-02T09:36:05.979Z,1.10
2022-08-02T09:38:21.099Z,1.20
2022-08-02T09:40:48.133Z,1.50
2022-08-02T09:43:17.264Z,1.30
2022-08-02T09:45:45.008Z,1.10
2022-08-02T09:48:12.724Z,1.10
2022-08-02T09:50:41.733Z,1.30
2022-08-02T09:53:15.794Z,1.20
2022-08-02T09:55:43.155Z,1.08
2022-08-02T09:58:20.797Z,1.38
2022-08-02T10:01:01.233Z,1.10
2022-08-02T10:03:35.122Z,1.13
2022-08-02T10:06:04.381Z,1.40
2022-08-02T10:08:33.831Z,1.30
2022-08-02T10:11:01.856Z,1.48
2022-08-02T10:13:33.346Z,1.33
2022-08-02T10:16:02.495Z,1.50
2022-08-02T10:18:38.916Z,1.50
2022-08-02T10:21:12.490Z,1.27
2022-08-02T10:23:42.692Z,1.42
2022-08-02T10:26:13.102Z,1.50
2022-08-02T10:28:39.976Z,1.23
2022-08-02T10:31:08.051Z,1.38
2022-08-02T10:33:37.568Z,1.33
2022-08-02T10:36:07.799Z,1.17
2022-08-02T10:38:36.153Z,1.50
2022-08-02T10:41:03.586Z,1.20
2022-08-02T10:43:36.173Z,1.10
2022-08-02T10:46:33.426Z,1.27
2022-08-02T10:49:38.098Z,1.70
2022-08-02T10:52:01.921Z,1.33
2022-08-02T10:54:31.589Z,1.25
2022-08-02T10:57:01.448Z,1.20
2022-08-02T10:59:32.890Z,1.70
2022-08-02T11:02:05.839Z,1.55
2022-08-02T11:04:53.532Z,1.48
2022-08-02T11:07:34.506Z,1.30
2022-08-02T11:10:30.594Z,1.58
2022-08-02T11:13:03.876Z,1.52
2022-08-02T11:15:46.976Z,1.10
2022-08-02T11:18:13.875Z,1.52
2022-08-02T11:20:40.767Z,1.13
2022-08-02T11:23:44.861Z,1.30
2022-08-02T11:26:31.260Z,1.13
2022-08-02T11:29:00.760Z,1.65
2022-08-02T11:31:28.446Z,1.20
2022-08-02T11:33:56.021Z,1.40
2022-08-02T11:36:23.088Z,1.88
2022-08-02T11:38:50.121Z,1.48
2022-08-02T11:41:46.219Z,1.50
2022-08-02T11:44:09.446Z,1.38
2022-08-02T11:46:37.286Z,1.50
2022-08-02T11:49:18.395Z,1.65
2022-08-02T11:52:01.172Z,1.33
2022-08-02T11:54:35.476Z,1.35
2022-08-02T11:57:21.581Z,1.30
2022-08-02T11:59:54.429Z,1.30
2022-08-02T12:02:24.573Z,1.33
2022-08-02T12:04:59.751Z,1.20
2022-08-02T12:07:36.566Z,1.25
2022-08-02T12:10:09.769Z,1.10
2022-08-02T12:12:59.562Z,1.02
2022-08-02T12:15:47.250Z,1.08
2022-08-02T12:18:35.679Z,1.52
2022-08-02T12:21:03.918Z,1.30
2022-08-02T12:23:30.809Z,1.33
2022-08-02T12:26:16.534Z,1.17
2022-08-02T12:28:44.033Z,1.00
2022-08-02T12:31:15.626Z,0.90
2022-08-02T12:33:54.787Z,1.40
2022-08-02T12:36:27.964Z,1.38
2022-08-02T12:39:01.118Z,1.40
2022-08-02T12:41:30.974Z,1.40
2022-08-02T12:44:00.560Z,1.13
2022-08-02T12:46:27.874Z,1.20
2022-08-02T12:49:17.890Z,1.15
2022-08-02T12:51:58.999Z,1.10
2022-08-02T12:54:39.438Z,1.30
2022-08-02T12:57:14.369Z,1.08
2022-08-02T12:59:42.651Z,1.13
2022-08-02T13:02:12.292Z,1.05
2022-08-02T13:04:39.758Z,1.00
2022-08-02T13:07:06.682Z,1.20
2022-08-02T13:09:37.999Z,1.17
2022-08-02T13:12:06.567Z,1.23
2022-08-02T13:14:39.934Z,1.42
2022-08-02T13:17:09.739Z,1.30
2022-08-02T13:19:37.448Z,1.17
2022-08-02T13:22:04.516Z,1.27
2022-08-02T13:24:40.495Z,1.05
2022-08-02T13:27:21.447Z,1.25
2022-08-02T13:29:50.603Z,1.13
2022-08-02T13:32:17.799Z,1.10
2022-08-02T13:34:45.126Z,1.17
2022-08-02T13:37:12.625Z,1.15
2022-08-02T13:39:39.495Z,1.13
2022-08-02T13:42:07.243Z,1.20
2022-08-02T13:44:34.891Z,1.08
2022-08-02T13:47:02.899Z,0.90
2022-08-02T13:49:50.219Z,0.90
2022-08-02T13:52:17.490Z,1.10
2022-08-02T13:54:44.436Z,0.90
2022-08-02T13:57:11.273Z,0.95
2022-08-02T13:59:57.624Z,1.02
2022-08-02T14:02:26.699Z,1.27
2022-08-02T14:04:53.818Z,0.95
2022-08-02T14:07:21.217Z,1.20
2022-08-02T14:09:48.048Z,1.20
2022-08-02T14:12:15.518Z,0.95
2022-08-02T14:14:42.758Z,1.20
2022-08-02T14:17:11.192Z,1.15
2022-08-02T14:19:38.309Z,1.02
2022-08-02T14:22:10.852Z,1.20
2022-08-02T14:24:39.830Z,1.27
2022-08-02T14:27:07.172Z,1.10
2022-08-02T14:29:34.408Z,1.17
2022-08-02T14:32:01.463Z,0.73
2022-08-02T14:34:29.096Z,1.05
2022-08-02T14:36:56.883Z,0.90
2022-08-02T14:39:23.792Z,1.15
2022-08-02T14:41:59.622Z,1.40
2022-08-02T14:44:29.096Z,1.10
2022-08-02T14:46:56.793Z,0.93
2022-08-02T14:49:25.768Z,1.17
2022-08-02T14:51:54.380Z,0.82
2022-08-02T14:54:30.413Z,1.20
2022-08-02T14:57:03.420Z,0.95
2022-08-02T14:59:31.177Z,0.90
2022-08-02T15:01:59.084Z,0.93
2022-08-02T15:04:26.498Z,0.98
2022-08-02T15:06:54.236Z,1.15
2022-08-02T15:09:22.254Z,1.05
2022-08-02T15:11:49.754Z,1.00
2022-08-02T15:14:22.175Z,1.00
2022-08-02T15:16:58.382Z,1.02
2022-08-02T15:19:55.999Z,1.10
2022-08-02T15:22:19.299Z,1.00
2022-08-02T15:24:47.458Z,0.90
2022-08-02T15:27:15.083Z,0.88
2022-08-02T15:29:44.239Z,1.00
2022-08-02T15:32:12.016Z,0.70
2022-08-02T15:34:39.897Z,1.00
2022-08-02T15:37:06.819Z,0.98
2022-08-02T15:39:33.864Z,1.15
2022-08-02T15:42:01.041Z,1.00
2022-08-02T15:44:28.478Z,0.93
2022-08-02T15:46:55.774Z,0.95
2022-08-02T15:49:24.075Z,0.90
2022-08-02T15:51:54.870Z,1.20
2022-08-02T15:54:22.065Z,0.80
2022-08-02T15:56:49.619Z,1.02
2022-08-02T15:59:17.112Z,0.95
2022-08-02T16:01:47.739Z,1.00
2022-08-02T16:04:16.159Z,1.00
2022-08-02T16:06:43.745Z,1.17
2022-08-02T16:09:10.851Z,0.88
2022-08-02T16:11:37.787Z,1.10
2022-08-02T16:14:04.794Z,0.77
2022-08-02T16:16:34.514Z,0.82
2022-08-02T16:19:46.623Z,0.73
2022-08-02T16:21:50.654Z,0.82
2022-08-02T16:24:17.816Z,0.73
2022-08-02T16:26:44.694Z,0.88
2022-08-02T16:29:11.694Z,0.90
2022-08-02T16:31:42.449Z,0.80
2022-08-02T16:34:10.606Z,1.13
2022-08-02T16:36:37.977Z,0.93
2022-08-02T16:39:05.630Z,1.55
2022-08-02T16:41:50.603Z,0.98
2022-08-02T16:44:27.659Z,0.90
2022-08-02T16:47:01.451Z,0.95
2022-08-02T16:50:06.752Z,1.10
2022-08-02T16:52:19.188Z,0.70
2022-08-02T16:54:49.845Z,1.23
2022-08-02T16:57:19.887Z,0.82
2022-08-02T16:59:58.231Z,0.90
2022-08-02T17:02:26.838Z,0.98
2022-08-02T17:04:55.199Z,0.90
2022-08-02T17:08:06.019Z,1.23
2022-08-02T17:10:09.916Z,0.82
2022-08-02T17:12:38.239Z,0.90
2022-08-02T17:15:47.016Z,1.02
2022-08-02T17:17:53.915Z,1.42
2022-08-02T17:20:20.827Z,1.05
2022-08-02T17:22:47.962Z,0.88
2022-08-02T17:25:17.662Z,0.98
2022-08-02T17:27:45.404Z,1.38
2022-08-02T17:30:13.571Z,0.93
2022-08-02T17:32:45.380Z,0.98
2022-08-02T17:35:15.435Z,1.10
2022-08-02T17:37:43.400Z,1.17
2022-08-02T17:40:23.854Z,0.90
2022-08-02T17:42:50.805Z,0.88
2022-08-02T17:45:25.925Z,0.95
2022-08-02T17:48:05.655Z,2.75
2022-08-02T17:50:34.187Z,4.00
2022-08-02T17:53:01.806Z,3.38
2022-08-02T17:55:30.965Z,3.00
2022-08-02T17:57:59.463Z,1.70
2022-08-02T18:00:37.879Z,0.90
2022-08-02T18:03:09.938Z,0.88
2022-08-02T18:05:40.294Z,1.30
2022-08-02T18:08:21.197Z,1.23
2022-08-02T18:10:48.546Z,1.15
2022-08-02T18:13:15.399Z,1.58
2022-08-02T18:15:45.487Z,1.15
2022-08-02T18:18:14.611Z,1.05
2022-08-02T18:20:42.224Z,0.80
2022-08-02T18:23:10.934Z,0.88
2022-08-02T18:25:44.087Z,0.70
2022-08-02T18:28:15.119Z,1.20
2022-08-02T18:30:42.762Z,2.03
2022-08-02T18:33:58.682Z,2.58
2022-08-02T18:35:56.558Z,1.35
2022-08-02T18:38:28.483Z,1.30
2022-08-02T18:40:55.713Z,0.80
2022-08-02T18:43:25.327Z,0.77
2022-08-02T18:46:07.361Z,1.08
2022-08-02T18:48:46.274Z,0.70
2022-08-02T18:51:14.049Z,0.85
2022-08-02T18:53:42.469Z,0.77
2022-08-02T18:56:20.485Z,1.00
2022-08-02T18:58:56.000Z,0.85
2022-08-02T19:01:33.718Z,0.90
2022-08-02T19:04:04.485Z,0.82
2022-08-02T19:06:32.108Z,1.50
2022-08-02T19:09:11.454Z,1.05
2022-08-02T19:11:47.185Z,0.80
2022-08-02T19:14:19.181Z,0.70
2022-08-02T19:16:54.494Z,0.70
2022-08-02T19:19:22.241Z,1.08
2022-08-02T19:22:17.711Z,1.00
2022-08-02T19:24:37.735Z,0.80
2022-08-02T19:27:13.537Z,1.15
2022-08-02T19:29:42.883Z,1.10
2022-08-02T19:32:39.846Z,1.40
2022-08-02T19:35:19.139Z,1.27
2022-08-02T19:40:42.964Z,1.27
2022-08-02T19:44:24.872Z,1.35
2022-08-02T19:46:01.290Z,1.30
2022-08-02T19:51:15.277Z,1.33
2022-08-02T19:53:48.861Z,1.27
2022-08-02T19:56:21.145Z,1.30
2022-08-02T19:58:53.737Z,1.10
2022-08-02T20:01:28.154Z,1.17
2022-08-02T20:04:04.958Z,1.65
2022-08-02T20:06:31.849Z,1.50
2022-08-02T20:09:01.395Z,1.15
2022-08-02T20:11:34.741Z,1.13
2022-08-02T20:14:04.312Z,1.30
2022-08-02T20:19:18.961Z,1.23
2022-08-02T20:21:54.313Z,1.20
2022-08-02T20:24:26.708Z,1.38
2022-08-02T20:26:53.941Z,0.98
2022-08-02T20:29:43.933Z,1.20
2022-08-02T20:32:08.110Z,1.08
2022-08-02T20:34:36.383Z,1.63
2022-08-02T20:38:01.381Z,1.17
2022-08-02T20:39:51.619Z,1.02
2022-08-02T20:42:23.264Z,1.13
2022-08-02T20:44:55.252Z,1.52
2022-08-02T20:47:27.637Z,1.23
2022-08-02T20:50:30.461Z,1.40
2022-08-02T20:53:00.581Z,1.20
2022-08-02T20:55:30.805Z,1.40
2022-08-02T20:58:03.022Z,1.50
2022-08-02T21:00:31.760Z,1.13
2022-08-02T21:03:00.281Z,1.58
2022-08-02T21:05:43.951Z,1.40
2022-08-02T21:08:15.341Z,1.30
2022-08-02T21:10:52.045Z,1.17
2022-08-02T21:13:23.082Z,1.75
2022-08-02T21:15:51.959Z,1.20
2022-08-02T21:18:22.955Z,1.13
2022-08-02T21:20:59.420Z,1.40
2022-08-02T21:23:29.250Z,1.63
2022-08-02T21:25:58.064Z,1.58
2022-08-02T21:28:35.093Z,1.40
2022-08-02T21:31:13.509Z,1.30
2022-08-02T21:33:56.987Z,1.88
2022-08-02T21:36:32.218Z,1.67
2022-08-02T21:39:04.466Z,1.50
2022-08-02T21:41:39.821Z,1.70
2022-08-02T21:44:18.174Z,1.55
2022-08-02T21:46:46.775Z,1.65
2022-08-02T21:49:17.576Z,2.00
2022-08-02T21:51:49.297Z,1.65
2022-08-02T21:54:20.249Z,1.45
2022-08-02T21:56:52.179Z,1.55
2022-08-02T21:59:26.265Z,1.38
2022-08-02T22:01:56.531Z,1.90
2022-08-02T22:04:25.731Z,1.80
2022-08-02T22:06:55.047Z,1.70
2022-08-02T22:09:44.175Z,2.28
2022-08-02T22:12:12.591Z,1.58
2022-08-02T22:14:43.503Z,1.80
2022-08-02T22:17:17.124Z,1.40
2022-08-02T22:19:53.971Z,1.20
2022-08-02T22:22:28.293Z,1.70
2022-08-02T22:24:56.728Z,1.30
2022-08-02T22:28:15.898Z,1.90
2022-08-02T22:30:11.915Z,1.33
2022-08-02T22:32:57.852Z,1.52
2022-08-02T22:35:24.900Z,1.85
2022-08-02T22:38:16.903Z,1.52
2022-08-02T22:40:39.226Z,1.40
2022-08-02T22:43:06.730Z,1.35
2022-08-02T22:45:37.725Z,1.23
2022-08-02T22:48:05.745Z,1.67
2022-08-02T22:50:33.471Z,1.48
2022-08-02T22:53:03.015Z,1.27
2022-08-02T22:55:32.196Z,1.55
2022-08-02T22:57:59.803Z,1.50
2022-08-02T22:58:52.549Z,1.25
2022-08-02T22:59:06.461Z,1.33
2022-08-02T22:59:07.583Z,1.38
2022-08-02T23:00:26.959Z,1.40
2022-08-02T23:02:54.090Z,1.65
2022-08-02T23:05:21.767Z,1.50
2022-08-02T23:07:48.677Z,1.50
2022-08-02T23:10:15.747Z,1.75
2022-08-02T23:12:42.576Z,1.50
2022-08-02T23:15:10.333Z,1.67
2022-08-02T23:17:55.701Z,2.00
2022-08-02T23:20:22.829Z,1.50
2022-08-02T23:22:49.894Z,1.73
2022-08-02T23:25:17.062Z,1.27
2022-08-02T23:27:50.770Z,1.38
2022-08-02T23:30:18.894Z,1.48
2022-08-02T23:32:47.012Z,1.52
2022-08-02T23:35:16.938Z,2.03
2022-08-02T23:38:00.487Z,1.50
2022-08-02T23:40:40.196Z,1.30
2022-08-02T23:43:14.230Z,2.15
2022-08-02T23:45:46.266Z,1.73
2022-08-02T23:48:13.532Z,1.88
2022-08-02T23:50:40.349Z,1.70
2022-08-02T23:53:07.155Z,2.45
2022-08-02T23:55:33.956Z,2.05
2022-08-02T23:58:01.043Z,2.08
